createdAt,value
2022-10-22T00:01:09.426Z,3.93
2022-10-22T00:03:36.181Z,3.63
2022-10-22T00:06:03.904Z,3.63
2022-10-22T00:08:31.414Z,3.70
2022-10-22T00:10:58.281Z,3.43
2022-10-22T00:13:25.396Z,3.47
2022-10-22T00:15:52.059Z,3.40
2022-10-22T00:18:20.240Z,3.90
2022-10-22T00:20:47.035Z,3.10
2022-10-22T00:23:14.500Z,3.43
2022-10-22T00:25:43.642Z,3.90
2022-10-22T00:28:11.582Z,3.43
2022-10-22T00:30:38.302Z,3.43
2022-10-22T00:33:04.924Z,3.70
2022-10-22T00:35:32.349Z,3.80
2022-10-22T00:38:00.089Z,3.50
2022-10-22T00:40:27.205Z,3.87
2022-10-22T00:42:54.604Z,3.63
2022-10-22T00:45:25.370Z,3.70
2022-10-22T00:48:21.553Z,4.30
2022-10-22T00:50:58.629Z,3.50
2022-10-22T00:53:31.495Z,3.53
2022-10-22T00:55:59.279Z,3.80
2022-10-22T00:58:29.495Z,3.53
2022-10-22T01:00:57.108Z,3.63
2022-10-22T01:03:24.622Z,3.50
2022-10-22T01:05:59.981Z,3.33
2022-10-22T01:08:41.472Z,3.57
2022-10-22T01:11:35.852Z,3.20
2022-10-22T01:14:41.216Z,3.73
2022-10-22T01:17:23.661Z,3.63
2022-10-22T01:20:23.641Z,3.57
2022-10-22T01:23:00.405Z,3.37
2022-10-22T01:25:46.138Z,3.03
2022-10-22T01:28:51.787Z,3.60
2022-10-22T01:31:22.077Z,3.30
2022-10-22T01:33:51.160Z,3.97
2022-10-22T01:36:19.209Z,3.23
2022-10-22T01:38:47.633Z,3.57
2022-10-22T01:41:14.581Z,3.57
2022-10-22T01:43:42.197Z,3.47
2022-10-22T01:46:11.660Z,3.73
2022-10-22T01:49:16.726Z,3.33
2022-10-22T01:52:03.693Z,3.10
2022-10-22T01:54:42.653Z,3.77
2022-10-22T01:57:17.844Z,3.57
2022-10-22T01:59:54.657Z,3.60
2022-10-22T02:02:40.938Z,3.47
2022-10-22T02:05:36.206Z,3.97
2022-10-22T02:08:09.154Z,3.37
2022-10-22T02:10:39.585Z,3.60
2022-10-22T02:13:12.696Z,3.53
2022-10-22T02:15:42.027Z,3.37
2022-10-22T02:18:10.139Z,3.67
2022-10-22T02:20:41.945Z,3.40
2022-10-22T02:23:10.521Z,3.40
2022-10-22T02:25:45.025Z,3.83
2022-10-22T02:28:24.699Z,3.47
2022-10-22T02:30:56.656Z,3.30
2022-10-22T02:33:28.751Z,3.30
2022-10-22T02:35:56.299Z,3.37
2022-10-22T02:38:25.161Z,3.57
2022-10-22T02:40:51.993Z,3.87
2022-10-22T02:43:19.767Z,3.37
2022-10-22T02:45:47.305Z,3.47
2022-10-22T02:48:14.381Z,3.47
2022-10-22T02:50:42.001Z,3.60
2022-10-22T02:53:08.639Z,3.63
2022-10-22T02:55:35.469Z,3.30
2022-10-22T02:58:03.465Z,3.77
2022-10-22T03:00:30.285Z,3.47
2022-10-22T03:02:56.910Z,3.83
2022-10-22T03:05:23.661Z,3.37
2022-10-22T03:07:50.332Z,3.77
2022-10-22T03:10:17.280Z,3.90
2022-10-22T03:12:44.037Z,3.70
2022-10-22T03:15:10.745Z,3.47
2022-10-22T03:17:37.562Z,3.70
2022-10-22T03:20:05.661Z,3.40
2022-10-22T03:22:33.985Z,3.60
2022-10-22T03:25:07.821Z,3.47
2022-10-22T03:27:37.657Z,3.70
2022-10-22T03:30:05.354Z,3.77
2022-10-22T03:32:32.128Z,3.60
2022-10-22T03:37:31.727Z,3.50
2022-10-22T03:39:58.616Z,4.03
2022-10-22T03:42:25.376Z,3.47
2022-10-22T03:44:52.805Z,3.83
2022-10-22T03:47:21.143Z,3.60
2022-10-22T03:49:47.778Z,3.93
2022-10-22T03:52:15.193Z,4.37
2022-10-22T03:54:42.827Z,3.97
2022-10-22T03:57:11.282Z,4.10
2022-10-22T03:59:40.912Z,4.00
2022-10-22T04:02:08.699Z,4.03
2022-10-22T04:04:36.050Z,4.20
2022-10-22T04:07:02.892Z,4.33
2022-10-22T04:09:34.222Z,4.13
2022-10-22T04:12:01.337Z,4.00
2022-10-22T04:14:28.043Z,3.70
2022-10-22T04:16:55.653Z,3.83
2022-10-22T04:19:22.317Z,3.90
2022-10-22T04:21:49.307Z,3.50
2022-10-22T04:24:16.734Z,4.00
2022-10-22T04:26:43.696Z,3.80
2022-10-22T04:29:15.932Z,4.17
2022-10-22T04:31:43.549Z,3.97
2022-10-22T04:34:10.165Z,3.60
2022-10-22T04:36:36.830Z,3.87
2022-10-22T04:39:04.734Z,3.83
2022-10-22T04:41:37.087Z,4.10
2022-10-22T04:44:04.932Z,3.90
2022-10-22T04:46:34.583Z,4.30
2022-10-22T04:49:03.794Z,3.83
2022-10-22T04:51:31.819Z,3.63
2022-10-22T04:53:58.562Z,4.50
2022-10-22T04:56:27.877Z,4.27
2022-10-22T04:58:57.356Z,4.57
2022-10-22T05:01:32.335Z,4.23
2022-10-22T05:04:01.239Z,3.90
2022-10-22T05:06:29.800Z,4.43
2022-10-22T05:08:58.978Z,4.20
2022-10-22T05:11:29.096Z,4.47
2022-10-22T05:13:57.392Z,4.23
2022-10-22T05:16:24.838Z,4.27
2022-10-22T05:18:54.132Z,4.37
2022-10-22T05:21:21.933Z,3.97
2022-10-22T05:23:50.279Z,4.23
2022-10-22T05:26:21.807Z,4.27
2022-10-22T05:28:49.638Z,3.93
2022-10-22T05:31:17.092Z,4.00
2022-10-22T05:33:44.319Z,3.77
2022-10-22T05:36:16.155Z,4.40
2022-10-22T05:38:43.446Z,3.93
2022-10-22T05:41:13.068Z,4.23
2022-10-22T05:43:40.344Z,4.40
2022-10-22T05:46:22.969Z,3.63
2022-10-22T05:48:58.270Z,4.10
2022-10-22T05:51:26.689Z,4.20
2022-10-22T05:53:58.815Z,4.17
2022-10-22T05:56:27.070Z,4.10
2022-10-22T05:58:53.768Z,4.07
2022-10-22T06:01:27.435Z,4.03
2022-10-22T06:03:55.948Z,4.50
2022-10-22T06:06:39.602Z,4.43
2022-10-22T06:09:06.384Z,5.03
2022-10-22T06:11:35.185Z,4.77
2022-10-22T06:14:02.915Z,4.70
2022-10-22T06:16:30.423Z,4.30
2022-10-22T06:19:01.049Z,4.73
2022-10-22T06:21:29.208Z,4.63
2022-10-22T06:23:58.835Z,4.50
2022-10-22T06:26:25.828Z,4.40
2022-10-22T06:28:52.939Z,4.67
2022-10-22T06:31:20.511Z,4.40
2022-10-22T06:33:47.086Z,4.37
2022-10-22T06:36:18.141Z,5.77
2022-10-22T06:38:45.169Z,4.80
2022-10-22T06:41:15.357Z,5.80
2022-10-22T06:43:47.772Z,4.47
2022-10-22T06:46:19.856Z,3.80
2022-10-22T06:48:52.456Z,4.30
2022-10-22T06:51:21.144Z,3.90
2022-10-22T06:53:48.074Z,3.67
2022-10-22T06:56:17.719Z,3.73
2022-10-22T06:58:48.298Z,3.83
2022-10-22T07:01:16.925Z,3.40
2022-10-22T07:03:44.401Z,3.33
2022-10-22T07:06:13.959Z,3.83
2022-10-22T07:08:42.179Z,3.73
2022-10-22T07:11:12.050Z,3.23
2022-10-22T07:13:38.626Z,3.43
2022-10-22T07:16:07.137Z,3.90
2022-10-22T07:18:35.708Z,3.40
2022-10-22T07:21:02.413Z,3.27
2022-10-22T07:23:29.804Z,3.07
2022-10-22T07:28:29.759Z,2.67
2022-10-22T07:30:56.394Z,3.17
2022-10-22T07:33:23.186Z,2.80
2022-10-22T07:35:49.811Z,1.97
2022-10-22T07:38:16.462Z,2.70
2022-10-22T07:40:43.068Z,2.57
2022-10-22T07:43:11.173Z,2.50
2022-10-22T07:45:37.778Z,2.37
2022-10-22T07:48:04.848Z,2.60
2022-10-22T07:50:31.587Z,2.43
2022-10-22T07:52:58.543Z,2.50
2022-10-22T07:55:25.697Z,2.10
2022-10-22T07:57:52.759Z,2.90
2022-10-22T08:00:23.041Z,2.20
2022-10-22T08:02:52.045Z,2.30
2022-10-22T08:05:19.190Z,2.30
2022-10-22T08:07:45.937Z,2.10
2022-10-22T08:10:13.933Z,2.53
2022-10-22T08:12:42.454Z,2.30
2022-10-22T08:15:09.923Z,2.30
2022-10-22T08:17:38.942Z,2.33
2022-10-22T08:20:06.187Z,2.03
2022-10-22T08:22:32.964Z,2.00
2022-10-22T08:25:00.535Z,1.93
2022-10-22T08:27:27.286Z,2.20
2022-10-22T08:29:54.012Z,2.20
2022-10-22T08:32:20.875Z,2.13
2022-10-22T08:34:47.703Z,2.40
2022-10-22T08:37:14.688Z,1.97
2022-10-22T08:39:42.758Z,2.33
2022-10-22T08:42:37.257Z,2.13
2022-10-22T08:45:13.541Z,2.20
2022-10-22T08:47:55.489Z,2.07
2022-10-22T08:50:45.570Z,2.00
2022-10-22T08:53:27.911Z,2.00
2022-10-22T08:55:54.719Z,2.67
2022-10-22T08:58:41.978Z,1.90
2022-10-22T09:01:20.931Z,1.87
2022-10-22T09:03:57.240Z,2.00
2022-10-22T14:45:56.102Z,1.33
2022-10-22T14:48:24.225Z,1.53
2022-10-22T14:50:51.211Z,1.20
2022-10-22T14:53:18.169Z,1.10
2022-10-22T14:55:47.302Z,1.13
2022-10-22T14:58:14.858Z,1.00
2022-10-22T15:00:42.885Z,1.10
2022-10-22T15:03:10.173Z,0.93
2022-10-22T15:05:43.390Z,1.17
2022-10-22T15:08:14.878Z,0.97
2022-10-22T15:10:41.920Z,1.07
2022-10-22T15:13:09.172Z,0.87
2022-10-22T15:15:39.443Z,1.00
2022-10-22T15:18:07.171Z,1.10
2022-10-22T15:20:33.937Z,0.87
2022-10-22T15:23:00.724Z,0.93
2022-10-22T15:25:27.688Z,0.90
2022-10-22T15:27:58.469Z,1.00
2022-10-22T15:30:31.525Z,1.10
2022-10-22T15:32:58.210Z,1.10
2022-10-22T15:35:28.556Z,1.00
2022-10-22T15:37:55.206Z,1.00
2022-10-22T15:40:21.898Z,0.80
2022-10-22T15:42:48.566Z,1.00
2022-10-22T15:45:15.804Z,1.23
2022-10-22T15:47:47.616Z,1.00
2022-10-22T15:50:15.116Z,1.17
2022-10-22T15:52:42.279Z,1.40
2022-10-22T15:55:10.641Z,1.03
2022-10-22T15:57:38.439Z,1.23
2022-10-22T16:00:06.338Z,1.30
2022-10-22T16:02:39.064Z,1.10
2022-10-22T16:05:06.896Z,1.40
2022-10-22T16:07:33.473Z,1.77
2022-10-22T16:10:01.554Z,1.30
2022-10-22T16:12:28.229Z,1.60
2022-10-22T16:14:54.873Z,1.47
2022-10-22T16:17:21.563Z,2.00
2022-10-22T16:19:48.588Z,1.97
2022-10-22T16:22:15.799Z,1.77
2022-10-22T16:24:43.129Z,2.10
2022-10-22T16:27:10.826Z,1.73
2022-10-22T16:29:39.297Z,1.83
2022-10-22T16:32:06.292Z,1.90
2022-10-22T16:34:32.971Z,1.60
2022-10-22T16:36:59.589Z,1.70
2022-10-22T16:39:26.237Z,2.00
2022-10-22T16:41:52.823Z,1.70
2022-10-22T16:44:19.646Z,2.17
2022-10-22T16:46:46.560Z,1.90
2022-10-22T16:49:13.254Z,1.87
2022-10-22T16:51:39.888Z,2.30
2022-10-22T16:54:09.715Z,2.07
2022-10-22T16:56:38.931Z,2.60
2022-10-22T16:59:06.764Z,2.53
2022-10-22T17:01:37.939Z,2.20
2022-10-22T17:04:07.213Z,2.33
2022-10-22T17:06:33.930Z,2.47
2022-10-22T17:09:00.733Z,2.27
2022-10-22T17:11:30.070Z,2.57
2022-10-22T17:13:57.153Z,2.43
2022-10-22T17:16:24.924Z,2.37
2022-10-22T17:18:53.897Z,2.13
2022-10-22T17:21:21.339Z,2.50
2022-10-22T17:23:48.414Z,2.50
2022-10-22T17:26:20.827Z,3.20
2022-10-22T17:28:48.705Z,2.67
2022-10-22T17:31:15.472Z,3.17
2022-10-22T17:33:42.296Z,2.60
2022-10-22T17:36:10.953Z,2.40
2022-10-22T17:38:38.933Z,2.80
2022-10-22T17:41:07.503Z,2.77
2022-10-22T17:43:37.848Z,2.70
2022-10-22T17:46:13.319Z,2.67
2022-10-22T17:48:40.321Z,2.97
2022-10-22T17:51:08.631Z,2.87
2022-10-22T17:53:35.771Z,3.50
2022-10-22T17:56:09.593Z,3.20
2022-10-22T17:58:36.608Z,3.43
2022-10-22T18:01:03.804Z,3.70
2022-10-22T18:03:30.742Z,3.07
2022-10-22T18:06:06.027Z,3.60
2022-10-22T18:08:33.131Z,3.20
2022-10-22T18:11:00.222Z,3.67
2022-10-22T18:13:26.882Z,2.67
2022-10-22T18:15:55.120Z,3.10
2022-10-22T18:18:22.990Z,3.27
2022-10-22T18:20:50.741Z,3.03
2022-10-22T18:23:20.717Z,3.37
2022-10-22T18:25:48.679Z,3.70
2022-10-22T18:28:17.784Z,3.40
2022-10-22T18:30:46.128Z,3.00
2022-10-22T18:33:15.281Z,3.10
2022-10-22T18:35:42.167Z,3.83
2022-10-22T18:38:10.125Z,3.23
2022-10-22T18:40:44.696Z,3.47
2022-10-22T18:43:11.825Z,3.67
2022-10-22T18:45:43.367Z,5.53
2022-10-22T18:48:10.620Z,5.60
2022-10-22T18:50:37.435Z,3.87
2022-10-22T18:53:04.367Z,3.60
2022-10-22T18:55:31.485Z,3.03
2022-10-22T18:57:58.299Z,3.53
2022-10-22T19:00:26.701Z,2.83
2022-10-22T19:02:54.880Z,2.90
2022-10-22T19:05:22.054Z,3.10
2022-10-22T19:07:51.983Z,3.20
2022-10-22T19:10:18.863Z,3.20
2022-10-22T19:12:45.668Z,3.50
2022-10-22T19:15:12.611Z,4.07
2022-10-22T19:17:39.429Z,3.30
2022-10-22T19:20:07.279Z,3.40
2022-10-22T19:22:34.159Z,3.27
2022-10-22T19:25:01.373Z,3.40
2022-10-22T19:27:29.311Z,3.67
2022-10-22T19:29:56.334Z,4.10
2022-10-22T19:32:24.436Z,4.47
2022-10-22T19:34:53.554Z,4.23
2022-10-22T19:37:20.860Z,4.57
2022-10-22T19:39:49.797Z,3.60
2022-10-22T19:42:16.547Z,4.20
2022-10-22T19:44:43.283Z,3.60
2022-10-22T19:47:11.337Z,3.93
2022-10-22T19:49:38.021Z,4.30
2022-10-22T19:52:04.809Z,4.63
2022-10-22T19:54:31.432Z,4.60
2022-10-22T19:56:58.098Z,4.63
2022-10-22T19:59:28.659Z,4.20
2022-10-22T20:01:57.966Z,4.30
2022-10-22T20:04:26.763Z,5.13
2022-10-22T20:06:58.776Z,4.27
2022-10-22T20:09:25.511Z,4.40
2022-10-22T20:11:52.125Z,4.70
2022-10-22T20:14:18.732Z,4.97
2022-10-22T20:16:45.694Z,5.30
2022-10-22T20:19:16.196Z,5.13
2022-10-22T20:21:43.875Z,5.03
2022-10-22T20:24:11.081Z,4.80
2022-10-22T20:26:37.879Z,5.23
2022-10-22T20:29:04.479Z,4.83
2022-10-22T20:31:32.963Z,4.63
2022-10-22T20:34:01.207Z,4.73
2022-10-22T20:36:29.939Z,4.97
2022-10-22T20:39:06.336Z,4.20
2022-10-22T20:41:34.775Z,4.37
2022-10-22T20:44:01.868Z,4.73
2022-10-22T20:46:31.282Z,3.67
2022-10-22T20:49:04.434Z,3.40
2022-10-22T20:51:31.683Z,3.50
2022-10-22T20:53:58.309Z,3.40
2022-10-22T20:56:25.190Z,3.10
2022-10-22T20:58:57.253Z,3.37
2022-10-22T21:01:24.312Z,3.90
2022-10-22T21:03:52.530Z,3.40
2022-10-22T21:06:23.561Z,3.70
2022-10-22T21:08:51.558Z,3.73
2022-10-22T21:11:18.941Z,4.10
2022-10-22T21:13:45.711Z,3.57
2022-10-22T21:16:14.556Z,3.73
2022-10-22T21:18:41.199Z,4.20
2022-10-22T21:21:09.025Z,2.93
2022-10-22T21:23:36.543Z,3.57
2022-10-22T21:26:04.205Z,3.77
2022-10-22T21:28:35.412Z,3.97
2022-10-22T21:31:08.235Z,3.47
2022-10-22T21:33:39.511Z,3.80
2022-10-22T21:36:08.937Z,3.40
2022-10-22T21:38:37.102Z,3.47
2022-10-22T21:41:08.231Z,3.80
2022-10-22T21:43:37.673Z,3.50
2022-10-22T21:46:08.189Z,3.37
2022-10-22T21:48:36.599Z,3.40
2022-10-22T21:51:08.901Z,3.53
2022-10-22T21:53:36.724Z,3.27
2022-10-22T21:56:04.551Z,3.23
2022-10-22T21:58:31.344Z,2.90
2022-10-22T22:00:58.542Z,2.73
2022-10-22T22:03:25.191Z,3.53
2022-10-22T22:05:57.869Z,3.50
2022-10-22T22:08:24.948Z,3.33
2022-10-22T22:10:52.184Z,2.70
2022-10-22T22:13:19.824Z,3.00
2022-10-22T22:15:46.441Z,3.10
2022-10-22T22:18:13.061Z,3.17
2022-10-22T22:20:39.742Z,2.97
2022-10-22T22:23:06.615Z,4.17
2022-10-22T22:25:33.261Z,3.13
2022-10-22T22:28:00.044Z,3.30
2022-10-22T22:30:28.219Z,3.03
2022-10-22T22:32:54.924Z,3.03
2022-10-22T22:35:22.017Z,2.80
2022-10-22T22:37:48.675Z,2.70
2022-10-22T22:40:15.240Z,3.40
2022-10-22T22:42:41.846Z,3.27
2022-10-22T22:45:08.716Z,3.00
2022-10-22T22:47:35.410Z,2.60
2022-10-22T22:50:02.022Z,2.70
2022-10-22T22:52:28.659Z,3.33
2022-10-22T22:54:55.282Z,3.30
2022-10-22T22:57:21.943Z,2.87
2022-10-22T22:59:52.004Z,2.87
2022-10-22T23:02:18.737Z,3.03
2022-10-22T23:04:45.324Z,2.53
2022-10-22T23:07:12.011Z,3.47
2022-10-22T23:09:38.666Z,2.70
2022-10-22T23:12:05.626Z,2.87
2022-10-22T23:14:32.433Z,3.10
2022-10-22T23:16:59.073Z,2.93
2022-10-22T23:19:25.676Z,3.13
2022-10-22T23:21:54.626Z,3.20
2022-10-22T23:24:27.655Z,3.10
2022-10-22T23:26:56.007Z,3.27
2022-10-22T23:29:27.995Z,3.63
2022-10-22T23:31:55.348Z,3.03
2022-10-22T23:34:24.850Z,2.90
2022-10-22T23:36:52.485Z,2.73
2022-10-22T23:39:22.115Z,3.30
2022-10-22T23:41:49.083Z,3.17
2022-10-22T23:44:16.033Z,2.80
2022-10-22T23:46:43.026Z,2.80
2022-10-22T23:49:10.531Z,2.77
2022-10-22T23:51:38.382Z,2.90
2022-10-22T23:54:08.104Z,3.07
2022-10-22T23:56:35.530Z,2.63
2022-10-22T23:59:02.929Z,2.93
